ADDS METAR Data INFO
IDs: Format: Raw Decoded Include TAF

Data at: 2216 UTC 24 Jun 2018

KOEB 242155Z AUTO 03008KT 10SM SCT028 24/17 A2999 RMK AO2 T02400168
KOEB 242135Z AUTO 03008KT 10SM SCT028 SCT041 BKN060 23/17 A2999 RMK AO2 T02300169
KOEB 242115Z AUTO 02006KT 10SM SCT028 SCT035 BKN048 24/17 A2999 RMK AO2 T02400172
KOEB 242055Z AUTO 04008KT 10SM SCT034 BKN046 BKN050 24/17 A2999 RMK AO2 T02380170
KOEB 242035Z AUTO 34010G14KT 10SM SCT034 SCT048 SCT070 25/16 A2998 RMK AO2 T02450156
KOEB 242015Z AUTO 34007KT 10SM SCT037 BKN050 OVC070 26/15 A2997 RMK AO2 T02560147
KOEB 241955Z AUTO 29008KT 10SM SCT037 OVC050 26/14 A2997 RMK AO2 T02550143
KOEB 241935Z AUTO 31009KT 10SM OVC050 24/14 A2997 RMK AO2 T02440143
KOEB 241915Z AUTO 32007KT 10SM OVC055 24/16 A2996 RMK AO2 T02430157
KOEB 241855Z AUTO 31007KT 10SM OVC049 24/15 A2996 RMK AO2 T02400146
KOEB 241835Z AUTO 32006KT 10SM SCT041 OVC049 24/14 A2996 RMK AO2 T02350143
KOEB 241815Z AUTO 30010KT 10SM SCT037 OVC045 23/15 A2996 RMK AO2 T02300146
KOEB 241755Z AUTO 31009KT 10SM BKN037 BKN046 OVC060 24/15 A2994 RMK AO2 T02370154 10244 20173
KOEB 241735Z AUTO 30007KT 10SM SCT030 BKN039 OVC060 24/16 A2993 RMK AO2 T02400159
KOEB 241715Z AUTO 31007KT 10SM BKN030 BKN038 BKN060 24/16 A2993 RMK AO2 T02410160
KOEB 241655Z AUTO 34008KT 10SM SCT030 24/16 A2993 RMK AO2 T02400163
KOEB 241635Z AUTO 34007KT 10SM SCT028 BKN034 BKN070 24/16 A2992 RMK AO2 T02350163
KOEB 241616Z AUTO 32009G14KT 10SM BKN028 BKN034 BKN060 23/16 A2993 RMK AO2 T02290155
KOEB 241555Z AUTO 31007KT 10SM SCT022 SCT030 SCT060 23/16 A2993 RMK AO2 T02330160
KOEB 241535Z AUTO 29008KT 10SM SCT022 SCT027 BKN060 23/17 A2994 RMK AO2 T02290166
KOEB 241515Z AUTO 29010G14KT 10SM BKN022 BKN031 23/16 A2993 RMK AO2 T02260162
KOEB 241455Z AUTO 28010G14KT 10SM BKN019 OVC025 22/16 A2993 RMK AO2 T02200162
KOEB 241435Z AUTO 29009KT 10SM BKN017 BKN022 21/16 A2992 RMK AO2 T02140164
KOEB 241415Z AUTO 29006KT 10SM BKN015 21/16 A2990 RMK AO2 T02090161
KOEB 241355Z AUTO 27008KT 10SM SCT017 BKN028 21/16 A2990 RMK AO2 T02050161
KOEB 241335Z AUTO 29007KT 10SM SCT017 BKN028 19/16 A2989 RMK AO2 T01920158
KOEB 241315Z AUTO 28007KT 10SM BKN030 19/15 A2988 RMK AO2 T01890153
KOEB 241255Z AUTO 27007KT 10SM CLR 19/15 A2986 RMK AO2 T01890151
KOEB 241235Z AUTO 27006KT 10SM CLR 18/15 A2986 RMK AO2 T01800150
KOEB 241215Z AUTO 28004KT 10SM SCT038 SCT120 17/15 A2986 RMK AO2 T01730147
KOEB 241155Z AUTO 28003KT 10SM SCT038 SCT120 17/16 A2986 RMK AO2 T01730155 10173 20155
KOEB 241135Z AUTO 26004KT 10SM SCT038 17/16 A2986 RMK AO2 T01700159
KOEB 241115Z AUTO 26004KT 10SM BKN038 17/16 A2985 RMK AO2 T01690160
KOEB 241055Z AUTO 25004KT 7SM SCT038 17/16 A2984 RMK AO2 T01660160
KOEB 241035Z AUTO 00000KT 10SM SCT040 BKN045 17/16 A2984 RMK AO2 T01650157
KOEB 241015Z AUTO 22004KT 10SM SCT029 OVC047 17/16 A2984 RMK AO2 T01650158
KOEB 240956Z AUTO 23004KT 10SM BKN029 BKN035 OVC047 17/16 A2984 RMK AO2 T01650158
KOEB 240935Z AUTO 23003KT 10SM BKN029 OVC037 16/16 A2983 RMK AO2 T01640159
KOEB 240915Z AUTO 00000KT 10SM BKN031 BKN041 BKN120 16/16 A2983 RMK AO2 T01630160
KOEB 240855Z AUTO 23003KT 10SM BKN120 16/16 A2982 RMK AO2 T01620157
KOEB 240835Z AUTO 23003KT 10SM OVC120 16/16 A2982 RMK AO2 T01620156
KOEB 240815Z AUTO 00000KT 10SM BKN120 16/16 A2982 RMK AO2 T01610158
KOEB 240755Z AUTO 00000KT 10SM OVC120 16/16 A2981 RMK AO2 T01620158
KOEB 240735Z AUTO 00000KT 10SM OVC120 16/16 A2982 RMK AO2 T01610157
KOEB 240715Z AUTO 00000KT 10SM OVC120 16/16 A2982 RMK AO2 T01610158
KOEB 240655Z AUTO 25003KT 10SM OVC120 16/16 A2982 RMK AO2 T01600157
KOEB 240635Z AUTO 23003KT 10SM BKN120 16/16 A2982 RMK AO2 T01560155
KOEB 240615Z AUTO 26004KT 10SM CLR 16/16 A2982 RMK AO2 T01580156
KOEB 240555Z AUTO 25005KT 10SM CLR 16/16 A2982 RMK AO2 T01560155 10200 20152 402450152
KOEB 240535Z AUTO 24003KT 10SM CLR 16/16 A2981 RMK AO2 T01550155
KOEB 240515Z AUTO 24003KT 10SM CLR 15/15 A2981 RMK AO2 T01530152
KOEB 240455Z AUTO 24003KT 10SM CLR 16/16 A2981 RMK AO2 T01560155
KOEB 240435Z AUTO 24003KT 10SM CLR 15/15 A2981 RMK AO2 T01530151
KOEB 240415Z AUTO 23003KT 10SM CLR 16/16 A2980 RMK AO2 T01600157
KOEB 240355Z AUTO 00000KT 10SM CLR 17/16 A2980 RMK AO2 T01650161
KOEB 240335Z AUTO 00000KT 10SM CLR 17/17 A2980 RMK AO2 T01670166
KOEB 240315Z AUTO 00000KT 10SM CLR 17/17 A2980 RMK AO2 T01700168
KOEB 240255Z AUTO 00000KT 10SM CLR 18/17 A2980 RMK AO2 T01750170
KOEB 240235Z AUTO 00000KT 10SM CLR 18/17 A2979 RMK AO2 T01750168
KOEB 240215Z AUTO 28003KT 10SM SCT060 18/17 A2979 RMK AO2 T01800168
KOEB 240155Z AUTO 25004KT 10SM CLR 19/17 A2978 RMK AO2 T01850170
KOEB 240135Z AUTO 24004KT 10SM CLR 19/17 A2978 RMK AO2 T01860173
KOEB 240115Z AUTO 23005KT 10SM SCT060 19/18 A2978 RMK AO2 T01890175
KOEB 240055Z AUTO 24004KT 10SM SCT065 19/18 A2977 RMK AO2 T01920177
KOEB 240035Z AUTO 26005KT 10SM SCT045 BKN065 20/18 A2977 RMK AO2 T01970181
KOEB 240015Z AUTO 26004KT 10SM BKN043 BKN055 OVC065 20/19 A2977 RMK AO2 T01970186
KOEB 232355Z AUTO 25004KT 7SM SCT041 BKN049 OVC055 20/18 A2978 RMK AO2 T01970182 10245 20195
KOEB 232335Z AUTO 26004KT 10SM SCT030 BKN041 OVC055 20/18 A2977 RMK AO2 T01950183
KOEB 232315Z AUTO 28007KT 5SM RA SCT017 SCT025 OVC039 20/18 A2978 RMK AO2 T01990179
KOEB 232255Z AUTO 27007KT 7SM -RA BKN041 OVC050 21/17 A2976 RMK AO2 T02110174
KOEB 232235Z AUTO 26007KT 10SM OVC045 22/17 A2976 RMK AO2 T02150166
KOEB 232216Z AUTO 26008KT 10SM SCT023 SCT029 OVC047 22/17 A2976 RMK AO2 T02170168
KOEB 232155Z AUTO 28008KT 10SM SCT023 BKN033 OVC055 22/17 A2976 RMK AO2 T02240174
KOEB 232135Z AUTO 25009KT 10SM BKN055 BKN075 23/17 A2976 RMK AO2 T02320172
KOEB 232115Z AUTO 24006KT 10SM SCT026 SCT030 BKN065 24/17 A2975 RMK AO2 T02430172
KOEB 232055Z AUTO 27007KT 10SM SCT024 OVC065 24/17 A2975 RMK AO2 T02390173
KOEB 232035Z AUTO 25007KT 10SM OVC055 23/17 A2975 RMK AO2 T02260172
KOEB 232015Z AUTO 26007KT 10SM SCT021 SCT033 OVC055 22/18 A2975 RMK AO2 T02200177
KOEB 231955Z AUTO 25007KT 10SM BKN021 OVC027 22/18 A2975 RMK AO2 T02230176
KOEB 231935Z AUTO 24005KT 10SM BKN021 BKN028 OVC047 23/17 A2974 RMK AO2 T02300173
KOEB 231915Z AUTO 24003KT 10SM SCT018 BKN025 BKN029 23/18 A2974 RMK AO2 T02280175
KOEB 231855Z AUTO 25003KT 10SM BKN016 BKN035 23/18 A2974 RMK AO2 T02290178
KOEB 231835Z AUTO 25004KT 10SM SCT014 BKN023 OVC035 22/17 A2974 RMK AO2 T02230174
KOEB 231815Z AUTO 26005KT 10SM BKN014 BKN023 OVC035 22/17 A2974 RMK AO2 T02190174
KOEB 231755Z AUTO 28003KT 10SM SCT012 BKN018 OVC034 21/18 A2974 RMK AO2 T02100180 10211 20178
KOEB 231735Z AUTO 27006KT 10SM SCT012 OVC025 21/18 A2974 RMK AO2 T02060181
KOEB 231715Z AUTO 26005KT 10SM BKN012 OVC023 21/18 A2975 RMK AO2 T02060180
KOEB 231655Z AUTO 27004KT 10SM SCT014 OVC021 21/18 A2974 RMK AO2 T02100184
KOEB 231635Z AUTO 27004KT 10SM SCT013 OVC025 21/18 A2974 RMK AO2 T02100183
KOEB 231615Z AUTO 27006KT 10SM SCT015 OVC024 21/18 A2974 RMK AO2 T02070182
KOEB 231555Z AUTO 28004KT 10SM OVC013 20/18 A2973 RMK AO2 T02040182
KOEB 231535Z AUTO 26006KT 10SM OVC015 21/18 A2974 RMK AO2 T02050181
KOEB 231515Z AUTO 27006KT 10SM SCT010 OVC015 20/18 A2974 RMK AO2 T02020182
KOEB 231455Z AUTO 27006KT 10SM BKN009 OVC015 21/19 A2973 RMK AO2 T02110185
KOEB 231435Z AUTO 31003KT 7SM OVC007 21/19 A2973 RMK AO2 T02060191
KOEB 231415Z AUTO 00000KT 5SM BR OVC004 20/19 A2973 RMK AO2 T01950191
KOEB 231355Z AUTO 27003KT 3SM BR OVC002 19/19 A2973 RMK AO2 T01870187
KOEB 231335Z AUTO 27003KT 2 1/2SM BR OVC002 18/18 A2973 RMK AO2 T01840184
KOEB 231315Z AUTO 32003KT 4SM BR OVC002 18/18 A2972 RMK AO2 T01820182
KOEB 231255Z AUTO 33004KT 1 3/4SM BR OVC002 18/18 A2972 RMK AO2 T01810181
KOEB 231235Z AUTO 33003KT 1 1/2SM BR OVC002 18/18 A2972 RMK AO2 T01790179
KOEB 231215Z AUTO 32003KT 1 1/4SM BR OVC002 18/18 A2972 RMK AO2 T01790179
KOEB 231155Z AUTO 33004KT 3/4SM BR OVC002 18/18 A2971 RMK AO2 T01800180 10180 20174
KOEB 231135Z AUTO 35004KT 1 1/2SM BR OVC002 18/18 A2971 RMK AO2 T01770177
KOEB 231115Z AUTO 35003KT 1 1/4SM BR OVC002 18/18 A2971 RMK AO2 T01770177
KOEB 231055Z AUTO 02004KT 1 1/2SM BR OVC002 18/18 A2971 RMK AO2 T01770177
KOEB 231035Z AUTO 35003KT 1 1/4SM BR OVC002 18/18 A2971 RMK AO2 T01770177